Time;durP1;ratioP1;P1;durP2;ratioP2;P2;SDS_P1;SDS_P2;PMS_P1;PMS_P2;Temp;Humidity;BMP_temperature;BMP_pressure;BME280_temperature;BME280_humidity;BME280_pressure;Samples;Min_cycle;Max_cycle;Signal;HPM_P1;HPM_P2
2020/12/12 00:02:21;;;;;;;38.77;19.03;;;3.20;99.90;;;;;;5053007;28;20731;-73
2020/12/12 00:04:47;;;;;;;41.53;17.97;;;3.20;99.90;;;;;;5052398;28;20808;-73
2020/12/12 00:07:13;;;;;;;39.73;20.00;;;3.20;99.90;;;;;;5053134;28;20757;-73
2020/12/12 00:09:38;;;;;;;67.17;23.00;;;3.20;99.90;;;;;;5053045;28;20413;-73
2020/12/12 00:12:05;;;;;;;47.90;19.37;;;3.30;99.90;;;;;;5052631;28;20259;-73
2020/12/12 00:14:31;;;;;;;48.83;20.20;;;3.20;99.90;;;;;;5052898;28;20184;-73
2020/12/12 00:16:57;;;;;;;52.97;22.87;;;3.30;99.90;;;;;;5052652;28;20516;-73
2020/12/12 00:19:23;;;;;;;53.33;22.70;;;3.30;99.90;;;;;;5052621;28;20425;-73
2020/12/12 00:21:58;;;;;;;43.50;20.83;;;3.20;99.90;;;;;;5052122;28;20464;-73
2020/12/12 00:24:24;;;;;;;53.47;20.63;;;3.20;99.90;;;;;;5052541;28;20204;-73
2020/12/12 00:26:49;;;;;;;53.33;20.60;;;3.30;99.90;;;;;;5051603;28;20456;-73
2020/12/12 00:29:16;;;;;;;52.17;20.33;;;3.30;99.90;;;;;;5052537;28;20257;-72
2020/12/12 00:31:42;;;;;;;51.87;21.03;;;3.20;99.90;;;;;;5052352;28;20184;-73
2020/12/12 00:34:09;;;;;;;46.73;20.47;;;3.30;99.90;;;;;;5052704;28;20412;-73
2020/12/12 00:36:41;;;;;;;48.63;23.67;;;3.20;99.90;;;;;;5052693;28;20736;-73
2020/12/12 00:39:07;;;;;;;48.93;19.37;;;3.20;99.90;;;;;;5052356;28;20829;-73
2020/12/12 00:41:37;;;;;;;48.80;21.23;;;3.20;99.90;;;;;;5051503;28;20502;-73
2020/12/12 00:44:05;;;;;;;52.93;22.57;;;3.20;99.90;;;;;;5052387;28;20868;-73
2020/12/12 00:46:31;;;;;;;50.70;22.00;;;3.30;99.90;;;;;;5051841;28;20412;-73
2020/12/12 00:48:56;;;;;;;45.73;21.70;;;3.30;99.90;;;;;;5051792;28;20746;-72
2020/12/12 00:51:22;;;;;;;45.63;20.53;;;3.20;99.90;;;;;;5052113;28;20175;-73
2020/12/12 00:53:48;;;;;;;42.63;19.70;;;3.10;99.90;;;;;;5052411;28;20177;-73
2020/12/12 00:56:14;;;;;;;56.33;20.90;;;3.20;99.90;;;;;;5051316;28;20181;-72
2020/12/12 00:58:41;;;;;;;39.60;19.70;;;3.10;99.90;;;;;;5051749;28;20218;-73
2020/12/12 01:01:07;;;;;;;48.20;21.20;;;3.20;99.90;;;;;;5051574;28;20985;-73
2020/12/12 01:03:32;;;;;;;50.47;20.27;;;3.10;99.90;;;;;;5051916;28;20735;-73
2020/12/12 01:05:58;;;;;;;47.90;21.30;;;3.10;99.90;;;;;;5052490;28;20411;-73
2020/12/12 01:08:24;;;;;;;49.10;19.87;;;3.10;99.90;;;;;;5052146;28;20736;-73
2020/12/12 01:10:51;;;;;;;40.60;19.20;;;3.20;99.90;;;;;;5051798;28;20210;-73
2020/12/12 01:13:17;;;;;;;46.57;20.10;;;3.10;99.90;;;;;;5052669;28;20814;-73
2020/12/12 01:15:43;;;;;;;46.57;20.33;;;3.20;99.90;;;;;;5052136;28;20502;-73
2020/12/12 01:18:09;;;;;;;43.90;20.30;;;3.10;99.90;;;;;;5051220;28;20758;-73
2020/12/12 01:20:37;;;;;;;47.70;20.23;;;3.00;99.90;;;;;;5052037;28;20458;-73
2020/12/12 01:23:03;;;;;;;55.90;22.43;;;3.00;99.90;;;;;;5051729;28;20182;-73
2020/12/12 01:25:28;;;;;;;54.87;19.27;;;3.00;99.90;;;;;;5052010;28;20835;-73
2020/12/12 01:27:54;;;;;;;50.77;20.60;;;3.00;99.90;;;;;;5051691;28;20212;-73
2020/12/12 01:30:20;;;;;;;57.83;22.07;;;3.00;99.90;;;;;;5051045;28;20267;-72
2020/12/12 01:32:46;;;;;;;47.27;22.33;;;3.00;99.90;;;;;;5051839;28;20676;-73
2020/12/12 01:35:11;;;;;;;55.27;22.20;;;3.00;99.90;;;;;;5055913;28;20169;-73
2020/12/12 01:37:37;;;;;;;56.23;23.63;;;3.00;99.90;;;;;;5055849;28;20588;-73
2020/12/12 01:40:03;;;;;;;51.17;21.60;;;3.00;99.90;;;;;;5055350;28;20228;-73
2020/12/12 01:42:32;;;;;;;47.13;22.07;;;3.00;99.90;;;;;;5055884;28;20246;-72
2020/12/12 01:44:59;;;;;;;41.70;18.80;;;2.90;99.90;;;;;;5056046;28;20514;-73
2020/12/12 01:47:28;;;;;;;42.50;20.40;;;2.90;99.90;;;;;;5055518;28;20412;-73
2020/12/12 01:49:54;;;;;;;50.80;21.10;;;2.90;99.90;;;;;;5055573;28;20406;-73
2020/12/12 01:52:21;;;;;;;47.03;19.93;;;2.90;99.90;;;;;;5055119;28;20498;-73
2020/12/12 01:54:48;;;;;;;53.33;20.97;;;2.90;99.90;;;;;;5055345;28;20189;-73
2020/12/12 01:57:19;;;;;;;49.13;18.90;;;2.90;99.90;;;;;;5055689;28;20795;-73
2020/12/12 01:59:49;;;;;;;47.83;21.40;;;2.90;99.90;;;;;;5055603;28;20757;-73
2020/12/12 02:02:16;;;;;;;55.27;22.10;;;3.00;99.90;;;;;;5055038;28;20409;-73
2020/12/12 02:04:51;;;;;;;39.87;20.17;;;2.90;99.90;;;;;;5055112;28;20416;-72
2020/12/12 02:07:18;;;;;;;49.87;22.30;;;2.90;99.90;;;;;;5056000;28;20740;-73
2020/12/12 02:09:45;;;;;;;43.83;19.90;;;3.00;99.90;;;;;;5055294;28;20417;-72
2020/12/12 02:12:12;;;;;;;46.23;19.90;;;2.90;99.90;;;;;;5055353;28;20433;-74
2020/12/12 02:14:38;;;;;;;49.43;21.70;;;2.90;99.90;;;;;;5055260;28;20404;-73
2020/12/12 02:17:06;;;;;;;52.37;20.97;;;2.90;99.90;;;;;;5054586;28;20995;-72
2020/12/12 02:19:33;;;;;;;43.20;19.93;;;3.00;99.90;;;;;;5055066;28;20408;-73
2020/12/12 02:22:00;;;;;;;37.33;18.53;;;3.00;99.90;;;;;;5054734;28;20455;-73
2020/12/12 02:24:33;;;;;;;52.87;19.60;;;3.00;99.90;;;;;;5054798;28;20450;-72
2020/12/12 02:27:00;;;;;;;46.03;19.43;;;3.00;99.90;;;;;;5054695;28;20396;-73
2020/12/12 02:29:29;;;;;;;39.93;20.47;;;2.90;99.90;;;;;;5055058;28;20465;-73
2020/12/12 02:31:54;;;;;;;45.37;21.67;;;3.00;99.90;;;;;;5054661;28;20415;-73
2020/12/12 02:34:20;;;;;;;43.30;19.23;;;2.90;99.90;;;;;;5054013;28;20439;-72
2020/12/12 02:36:46;;;;;;;50.00;22.90;;;2.90;99.90;;;;;;5054492;28;20416;-73
2020/12/12 02:39:14;;;;;;;42.67;19.37;;;3.00;99.90;;;;;;5054251;28;20200;-73
2020/12/12 02:41:40;;;;;;;47.33;21.10;;;2.90;99.90;;;;;;5054234;28;20196;-74
2020/12/12 02:44:06;;;;;;;51.10;21.00;;;2.80;99.90;;;;;;5054400;28;20799;-73
2020/12/12 02:46:32;;;;;;;45.33;19.20;;;2.80;99.90;;;;;;5054302;28;20635;-72
2020/12/12 02:49:00;;;;;;;50.33;21.60;;;2.80;99.90;;;;;;5054692;28;20584;-73
2020/12/12 02:51:26;;;;;;;46.27;20.27;;;2.80;99.90;;;;;;5053395;28;20918;-73
2020/12/12 02:53:52;;;;;;;49.20;21.20;;;2.80;99.90;;;;;;5053568;28;20429;-73
2020/12/12 02:56:18;;;;;;;50.70;22.50;;;2.80;99.90;;;;;;5053987;28;20184;-72
2020/12/12 02:58:44;;;;;;;42.80;20.30;;;2.80;99.90;;;;;;5054443;28;20186;-73
2020/12/12 03:01:10;;;;;;;48.83;21.17;;;2.80;99.90;;;;;;5053272;28;20467;-73
2020/12/12 03:03:36;;;;;;;48.40;21.50;;;2.90;99.90;;;;;;5053392;28;20602;-73
2020/12/12 03:06:02;;;;;;;41.77;20.47;;;2.80;99.90;;;;;;5054374;28;20188;-72
2020/12/12 03:08:28;;;;;;;39.40;18.50;;;2.80;99.90;;;;;;5054137;28;20412;-73
2020/12/12 03:10:54;;;;;;;47.83;22.80;;;2.90;99.90;;;;;;5054301;28;20418;-73
2020/12/12 03:13:19;;;;;;;37.67;20.17;;;2.80;99.90;;;;;;5054385;28;20218;-73
2020/12/12 03:15:45;;;;;;;47.37;22.33;;;2.80;99.90;;;;;;5053811;28;20254;-73
2020/12/12 03:18:11;;;;;;;43.13;20.30;;;2.80;99.90;;;;;;5054135;28;20694;-72
2020/12/12 03:20:37;;;;;;;40.57;20.23;;;2.80;99.90;;;;;;5052650;28;20447;-72
2020/12/12 03:23:03;;;;;;;46.70;20.50;;;2.80;99.90;;;;;;5053978;28;20668;-73
2020/12/12 03:25:29;;;;;;;46.93;21.00;;;2.80;99.90;;;;;;5054000;28;20275;-72
2020/12/12 03:27:55;;;;;;;43.07;21.37;;;2.70;99.90;;;;;;5053891;28;20496;-73
2020/12/12 03:30:21;;;;;;;39.90;20.30;;;2.70;99.90;;;;;;5053801;28;20743;-73
2020/12/12 03:32:47;;;;;;;47.07;23.83;;;2.70;99.90;;;;;;5053142;28;20245;-73
2020/12/12 03:35:12;;;;;;;44.07;20.47;;;2.70;99.90;;;;;;5053661;28;20408;-72
2020/12/12 03:37:38;;;;;;;46.83;22.13;;;2.70;99.90;;;;;;5053341;28;20181;-73
2020/12/12 03:40:05;;;;;;;46.57;22.97;;;2.70;99.90;;;;;;5053031;28;20196;-73
2020/12/12 03:42:30;;;;;;;43.00;20.00;;;2.70;99.90;;;;;;5053420;28;20230;-73
2020/12/12 03:44:56;;;;;;;46.10;20.77;;;2.70;99.90;;;;;;5053629;28;20415;-73
2020/12/12 03:47:22;;;;;;;46.00;18.93;;;2.70;99.90;;;;;;5052301;28;20182;-72
2020/12/12 03:49:47;;;;;;;40.47;20.40;;;2.70;99.90;;;;;;5053230;28;20181;-72
2020/12/12 03:52:15;;;;;;;40.73;18.60;;;2.70;99.90;;;;;;5053654;28;20185;-73
2020/12/12 03:54:41;;;;;;;46.07;20.37;;;2.70;99.90;;;;;;5053375;28;20167;-72
2020/12/12 03:57:07;;;;;;;47.00;20.07;;;2.60;99.90;;;;;;5050745;28;20813;-72
2020/12/12 03:59:34;;;;;;;40.97;20.10;;;2.60;99.90;;;;;;5052946;28;20196;-73
2020/12/12 04:02:00;;;;;;;49.33;20.90;;;2.60;99.90;;;;;;5053151;28;20448;-72
2020/12/12 04:04:26;;;;;;;48.27;20.00;;;2.60;99.90;;;;;;5052358;28;20559;-72
2020/12/12 04:06:51;;;;;;;39.73;17.87;;;2.60;99.90;;;;;;5053311;28;20177;-73
2020/12/12 04:09:17;;;;;;;39.20;18.93;;;2.50;99.90;;;;;;5053007;28;20852;-73
2020/12/12 04:11:43;;;;;;;47.33;21.10;;;2.50;99.90;;;;;;5052668;28;20268;-73
2020/12/12 04:14:08;;;;;;;39.20;19.30;;;2.50;99.90;;;;;;5053688;28;20184;-73
2020/12/12 04:16:34;;;;;;;44.20;20.20;;;2.50;99.90;;;;;;5052291;28;20506;-73
2020/12/12 04:19:00;;;;;;;37.57;18.83;;;2.50;99.90;;;;;;5052946;28;20230;-72
2020/12/12 04:21:26;;;;;;;43.87;19.93;;;2.50;99.90;;;;;;5052650;28;20219;-72
2020/12/12 04:23:52;;;;;;;51.67;21.57;;;2.50;99.90;;;;;;5052273;28;20186;-72
2020/12/12 04:26:20;;;;;;;45.53;18.37;;;2.50;99.90;;;;;;5052632;28;20362;-73
2020/12/12 04:28:46;;;;;;;46.17;21.17;;;2.50;99.90;;;;;;5053051;28;20722;-72
2020/12/12 04:31:12;;;;;;;48.43;21.90;;;2.50;99.90;;;;;;5052862;28;20418;-74
2020/12/12 04:33:37;;;;;;;46.20;18.67;;;2.50;99.90;;;;;;5052742;28;20186;-74
2020/12/12 04:36:05;;;;;;;45.50;21.07;;;2.40;99.90;;;;;;5052691;28;20177;-74
2020/12/12 04:38:32;;;;;;;44.80;22.07;;;2.40;99.90;;;;;;5050649;28;20533;-74
2020/12/12 04:40:58;;;;;;;40.57;19.53;;;2.40;99.90;;;;;;5052188;28;20541;-73
2020/12/12 04:43:26;;;;;;;43.90;21.00;;;2.50;99.90;;;;;;5052413;28;20470;-74
2020/12/12 04:45:52;;;;;;;47.53;21.33;;;2.40;99.90;;;;;;5052216;28;20404;-74
2020/12/12 04:48:18;;;;;;;42.87;19.00;;;2.50;99.90;;;;;;5052451;28;20412;-74
2020/12/12 04:50:45;;;;;;;52.27;19.97;;;2.50;99.90;;;;;;5052431;28;20423;-73
2020/12/12 04:53:21;;;;;;;50.03;20.67;;;2.40;99.90;;;;;;5051940;28;20408;-74
2020/12/12 04:55:52;;;;;;;39.60;19.03;;;2.50;99.90;;;;;;5051767;28;20416;-74
2020/12/12 04:58:24;;;;;;;41.20;20.20;;;2.40;99.90;;;;;;5052284;28;20820;-74
2020/12/12 05:00:51;;;;;;;46.60;20.93;;;2.50;99.90;;;;;;5051986;28;20997;-73
2020/12/12 05:03:19;;;;;;;45.80;21.67;;;2.50;99.90;;;;;;5051873;28;20408;-74
2020/12/12 05:05:45;;;;;;;46.50;21.23;;;2.50;99.90;;;;;;5052171;28;20514;-74
2020/12/12 05:08:12;;;;;;;44.47;21.70;;;2.40;99.90;;;;;;5051715;28;20918;-74
2020/12/12 05:10:49;;;;;;;43.07;21.37;;;2.40;99.90;;;;;;5051726;28;20408;-74
2020/12/12 05:13:22;;;;;;;46.97;22.07;;;2.40;99.90;;;;;;5051850;28;20451;-74
2020/12/12 05:15:51;;;;;;;44.93;20.70;;;2.40;99.90;;;;;;5051580;28;20408;-74
2020/12/12 05:18:18;;;;;;;50.60;20.87;;;2.40;99.90;;;;;;5051826;28;20415;-74
2020/12/12 05:20:44;;;;;;;47.47;21.73;;;2.40;99.90;;;;;;5051668;28;20453;-74
2020/12/12 05:23:12;;;;;;;42.53;19.43;;;2.40;99.90;;;;;;5052019;28;20412;-74
2020/12/12 05:25:39;;;;;;;48.37;21.07;;;2.40;99.90;;;;;;5052151;28;20785;-74
2020/12/12 05:28:06;;;;;;;52.43;22.20;;;2.40;99.90;;;;;;5052126;28;20799;-73
2020/12/12 05:30:43;;;;;;;53.00;21.57;;;2.40;99.90;;;;;;5050943;28;20423;-74
2020/12/12 05:33:20;;;;;;;51.87;24.03;;;2.40;99.90;;;;;;5051563;28;20402;-73
2020/12/12 05:35:47;;;;;;;50.33;20.90;;;2.30;99.90;;;;;;5051763;28;20422;-74
2020/12/12 05:38:14;;;;;;;49.50;20.50;;;2.40;99.90;;;;;;5051153;28;20507;-74
2020/12/12 05:40:43;;;;;;;49.47;23.10;;;2.40;99.90;;;;;;5051893;28;20475;-73
2020/12/12 05:43:12;;;;;;;51.17;21.57;;;2.40;99.90;;;;;;5051438;28;20794;-74
2020/12/12 05:45:40;;;;;;;49.50;21.93;;;2.40;99.90;;;;;;5051716;28;20858;-74
2020/12/12 05:48:07;;;;;;;44.53;20.90;;;2.50;99.90;;;;;;5051555;28;20469;-74
2020/12/12 05:50:33;;;;;;;47.53;20.90;;;2.50;99.90;;;;;;5051658;28;20507;-74
2020/12/12 05:52:58;;;;;;;47.80;21.70;;;2.50;99.90;;;;;;5066966;28;20502;-74
2020/12/12 05:55:32;;;;;;;50.53;22.60;;;2.50;99.90;;;;;;5051810;28;20913;-74
2020/12/12 05:57:58;;;;;;;45.10;20.53;;;2.40;99.90;;;;;;5051201;28;20588;-74
2020/12/12 06:00:26;;;;;;;46.53;21.63;;;2.40;99.90;;;;;;5051652;28;20461;-74
2020/12/12 06:03:20;;;;;;;56.70;22.90;;;2.40;99.90;;;;;;5051490;28;21201;-74
2020/12/12 06:05:48;;;;;;;59.53;20.93;;;2.40;99.90;;;;;;5051573;28;20932;-73
2020/12/12 06:08:32;;;;;;;54.83;22.40;;;2.40;99.90;;;;;;5051204;28;20429;-74
2020/12/12 06:11:03;;;;;;;51.67;22.97;;;2.40;99.90;;;;;;5051630;28;20411;-73
2020/12/12 06:13:37;;;;;;;45.27;21.13;;;2.40;99.90;;;;;;5051140;28;20860;-73
2020/12/12 06:16:04;;;;;;;52.00;21.90;;;2.40;99.90;;;;;;5050302;28;20932;-73
2020/12/12 06:18:59;;;;;;;50.60;21.43;;;2.40;99.90;;;;;;5051368;28;20477;-73
2020/12/12 06:21:28;;;;;;;50.13;21.53;;;2.50;99.90;;;;;;5054348;28;20451;-74
2020/12/12 06:23:56;;;;;;;55.80;22.53;;;2.50;99.90;;;;;;5054990;28;20416;-73
2020/12/12 06:26:40;;;;;;;59.10;22.60;;;2.40;99.90;;;;;;5054913;28;20787;-73
2020/12/12 06:29:08;;;;;;;55.07;23.30;;;2.40;99.90;;;;;;5054742;28;20759;-73
2020/12/12 06:31:36;;;;;;;45.90;22.00;;;2.50;99.90;;;;;;5054596;28;20405;-73
2020/12/12 06:34:02;;;;;;;49.83;21.27;;;2.50;99.90;;;;;;5054711;28;20426;-74
2020/12/12 06:36:31;;;;;;;49.53;22.07;;;2.50;99.90;;;;;;5054552;28;20407;-74
2020/12/12 06:39:16;;;;;;;54.67;21.47;;;2.40;99.90;;;;;;5054455;28;20435;-73
2020/12/12 06:41:43;;;;;;;52.37;20.13;;;2.50;99.90;;;;;;5054117;28;20482;-73
2020/12/12 06:44:08;;;;;;;43.83;21.07;;;2.40;99.90;;;;;;5055084;28;20412;-73
2020/12/12 06:46:52;;;;;;;53.50;21.10;;;2.50;99.90;;;;;;5053300;28;20412;-74
2020/12/12 06:49:18;;;;;;;55.07;22.57;;;2.50;99.90;;;;;;5054447;28;20422;-73
2020/12/12 06:51:44;;;;;;;55.30;22.20;;;2.40;99.90;;;;;;5054549;28;20762;-74
2020/12/12 06:54:10;;;;;;;55.97;24.10;;;2.50;99.90;;;;;;5054505;28;20423;-73
2020/12/12 06:56:36;;;;;;;51.83;21.17;;;2.50;99.90;;;;;;5054684;28;20421;-73
2020/12/12 06:59:27;;;;;;;49.80;22.30;;;2.40;99.90;;;;;;5053348;28;20424;-73
2020/12/12 07:01:58;;;;;;;43.67;20.37;;;2.50;99.90;;;;;;5053950;28;20196;-74
2020/12/12 07:04:26;;;;;;;51.23;22.90;;;2.50;99.90;;;;;;5053939;28;20889;-72
2020/12/12 07:06:59;;;;;;;45.43;20.23;;;2.50;99.90;;;;;;5054451;28;20501;-73
2020/12/12 07:09:26;;;;;;;51.27;22.23;;;2.50;99.90;;;;;;5054431;28;20429;-73
2020/12/12 07:11:53;;;;;;;42.03;18.90;;;2.50;99.90;;;;;;5053880;28;20412;-73
2020/12/12 07:14:19;;;;;;;43.00;21.10;;;2.50;99.90;;;;;;5054200;28;20535;-73
2020/12/12 07:16:45;;;;;;;51.40;21.70;;;2.50;99.90;;;;;;5043653;28;20822;-73
2020/12/12 07:19:13;;;;;;;56.97;22.70;;;2.50;99.90;;;;;;5054379;28;20423;-73
2020/12/12 07:21:44;;;;;;;54.50;22.53;;;2.40;99.90;;;;;;5053811;28;20461;-73
2020/12/12 07:24:10;;;;;;;46.67;21.67;;;2.40;99.90;;;;;;5053835;28;20428;-73
2020/12/12 07:26:36;;;;;;;45.33;21.40;;;2.50;99.90;;;;;;5053890;28;20427;-73
2020/12/12 07:29:01;;;;;;;51.10;21.90;;;2.50;99.90;;;;;;5053066;28;20184;-73
2020/12/12 07:31:27;;;;;;;55.90;22.40;;;2.50;99.90;;;;;;5053553;28;20725;-73
2020/12/12 07:33:53;;;;;;;56.60;22.20;;;2.50;99.90;;;;;;5053811;28;20630;-72
2020/12/12 07:36:19;;;;;;;57.40;23.57;;;2.50;99.90;;;;;;5053825;28;20506;-72
2020/12/12 07:38:44;;;;;;;48.77;22.67;;;2.50;99.90;;;;;;5053201;28;20202;-73
2020/12/12 07:41:12;;;;;;;50.53;23.83;;;2.50;99.90;;;;;;5053846;28;20584;-74
2020/12/12 07:43:57;;;;;;;55.03;21.73;;;2.50;99.90;;;;;;5053248;28;20500;-74
2020/12/12 07:46:41;;;;;;;47.87;21.00;;;2.50;99.90;;;;;;5053169;28;20891;-74
2020/12/12 07:49:08;;;;;;;53.97;21.33;;;2.50;99.90;;;;;;5053481;28;20413;-73
2020/12/12 07:51:35;;;;;;;47.60;19.43;;;2.50;99.90;;;;;;5053370;28;20451;-73
2020/12/12 07:54:22;;;;;;;55.33;22.60;;;2.50;99.90;;;;;;5052916;28;20412;-73
2020/12/12 07:56:52;;;;;;;51.20;21.70;;;2.50;99.90;;;;;;5053036;28;20733;-73
2020/12/12 07:59:22;;;;;;;57.57;22.70;;;2.40;99.90;;;;;;5052256;28;20461;-73
2020/12/12 08:01:48;;;;;;;53.73;23.67;;;2.40;99.90;;;;;;5053347;28;20457;-73
2020/12/12 08:04:23;;;;;;;49.37;22.50;;;2.50;99.90;;;;;;5052875;28;20400;-73
2020/12/12 08:06:52;;;;;;;57.50;21.83;;;2.40;99.90;;;;;;5052833;28;20760;-73
2020/12/12 08:09:23;;;;;;;57.30;23.70;;;2.40;99.90;;;;;;5053249;28;20494;-73
2020/12/12 08:12:00;;;;;;;48.00;22.43;;;2.40;99.90;;;;;;5052844;28;20423;-73
2020/12/12 08:14:28;;;;;;;53.10;23.43;;;2.40;99.90;;;;;;5052425;28;20899;-73
2020/12/12 08:16:57;;;;;;;48.10;20.07;;;2.40;99.90;;;;;;5052590;28;20412;-73
2020/12/12 08:19:22;;;;;;;50.70;22.70;;;2.50;99.90;;;;;;5052530;28;20408;-73
2020/12/12 08:22:12;;;;;;;53.27;23.70;;;2.40;99.90;;;;;;5053031;28;20445;-73
2020/12/12 08:24:38;;;;;;;47.80;22.93;;;2.40;99.90;;;;;;5052640;28;20186;-74
2020/12/12 08:27:12;;;;;;;57.77;22.60;;;2.50;99.90;;;;;;5052808;28;20422;-74
2020/12/12 08:29:48;;;;;;;61.20;23.50;;;2.60;99.90;;;;;;5052769;28;20346;-73
2020/12/12 08:32:33;;;;;;;52.93;25.07;;;2.50;99.90;;;;;;5052024;28;20411;-73
2020/12/12 08:35:19;;;;;;;52.00;20.37;;;2.50;99.90;;;;;;5052804;28;20793;-73
2020/12/12 08:37:57;;;;;;;58.43;24.63;;;2.50;99.90;;;;;;5051829;28;20406;-73
2020/12/12 08:40:42;;;;;;;59.87;22.67;;;2.50;99.90;;;;;;5052354;28;20514;-73
2020/12/12 08:43:09;;;;;;;45.53;21.90;;;2.50;99.90;;;;;;5051915;28;20406;-74
2020/12/12 08:45:40;;;;;;;50.80;21.77;;;2.50;99.90;;;;;;5051600;28;20414;-73
2020/12/12 08:48:12;;;;;;;54.30;23.23;;;2.40;99.90;;;;;;5051905;28;20421;-73
2020/12/12 08:50:49;;;;;;;54.23;23.70;;;2.50;99.90;;;;;;5052362;28;20441;-73
2020/12/12 08:53:27;;;;;;;52.30;23.50;;;2.50;99.90;;;;;;5052254;28;20421;-74
2020/12/12 08:56:36;;;;;;;52.07;23.70;;;2.50;99.90;;;;;;5052324;28;20420;-73
2020/12/12 08:59:06;;;;;;;46.50;22.90;;;2.50;99.90;;;;;;5003049;28;20533;-74
2020/12/12 09:01:33;;;;;;;55.00;25.30;;;2.50;99.90;;;;;;5051999;28;20454;-74
2020/12/12 09:04:07;;;;;;;53.60;23.67;;;2.50;99.90;;;;;;5051198;28;20412;-73
2020/12/12 09:06:35;;;;;;;48.23;22.37;;;2.50;99.90;;;;;;5052311;28;20422;-73
2020/12/12 09:09:20;;;;;;;57.90;24.10;;;2.50;99.90;;;;;;5051885;28;20423;-73
2020/12/12 09:12:00;;;;;;;47.00;22.37;;;2.60;99.90;;;;;;5052078;28;20415;-74
2020/12/12 09:14:29;;;;;;;45.77;20.90;;;2.60;99.90;;;;;;5050572;28;20880;-73
2020/12/12 09:16:59;;;;;;;53.43;25.70;;;2.50;99.90;;;;;;5052038;28;20422;-73
2020/12/12 09:19:25;;;;;;;48.77;21.93;;;2.60;99.90;;;;;;5052108;28;20418;-73
2020/12/12 09:21:52;;;;;;;52.17;22.77;;;2.50;99.90;;;;;;5051964;28;20487;-74
2020/12/12 09:24:19;;;;;;;54.60;23.63;;;2.60;99.90;;;;;;5052023;28;20995;-73
2020/12/12 09:26:47;;;;;;;48.83;22.40;;;2.60;99.90;;;;;;5051828;28;20419;-73
2020/12/12 09:29:13;;;;;;;61.97;24.53;;;2.70;99.90;;;;;;5051677;28;20432;-74
2020/12/12 09:31:38;;;;;;;56.23;25.77;;;2.80;99.90;;;;;;5051388;28;20768;-73
2020/12/12 09:34:05;;;;;;;49.57;23.10;;;2.80;99.90;;;;;;5052090;28;20504;-73
2020/12/12 09:36:31;;;;;;;50.83;24.63;;;2.90;99.90;;;;;;5051647;28;20631;-73
2020/12/12 09:38:56;;;;;;;46.57;21.80;;;2.90;99.90;;;;;;5051420;28;20439;-73
2020/12/12 09:41:22;;;;;;;44.60;23.83;;;2.80;99.90;;;;;;5051789;28;20453;-73
2020/12/12 09:43:48;;;;;;;59.33;21.37;;;2.90;99.90;;;;;;5051412;28;20607;-73
2020/12/12 09:46:18;;;;;;;48.67;23.07;;;2.80;99.90;;;;;;5051894;28;20191;-73
2020/12/12 09:48:45;;;;;;;50.67;22.67;;;2.80;99.90;;;;;;5051454;28;20177;-74
2020/12/12 09:51:13;;;;;;;48.67;23.20;;;2.90;99.90;;;;;;5051606;28;20503;-73
2020/12/12 09:53:40;;;;;;;51.27;21.93;;;2.90;99.90;;;;;;5051731;28;20924;-73
2020/12/12 09:56:06;;;;;;;47.23;22.30;;;2.90;99.90;;;;;;5053435;28;20503;-73
2020/12/12 09:58:32;;;;;;;53.20;24.50;;;2.90;99.90;;;;;;5055587;28;20514;-73
2020/12/12 10:00:58;;;;;;;46.07;21.80;;;3.00;99.90;;;;;;5054272;28;20204;-73
2020/12/12 10:03:24;;;;;;;47.23;21.30;;;2.90;99.90;;;;;;5055118;28;20403;-74
2020/12/12 10:05:50;;;;;;;45.10;21.93;;;2.90;99.90;;;;;;5055046;28;20411;-73
2020/12/12 10:08:16;;;;;;;40.10;21.57;;;2.80;99.90;;;;;;5054480;28;20429;-73
2020/12/12 10:10:42;;;;;;;47.87;22.50;;;2.80;99.90;;;;;;5055736;28;20278;-73
2020/12/12 10:13:07;;;;;;;54.53;23.93;;;2.90;99.90;;;;;;5054390;28;20421;-73
2020/12/12 10:15:33;;;;;;;49.03;20.77;;;2.80;99.90;;;;;;5054829;28;20182;-74
2020/12/12 10:17:59;;;;;;;47.90;21.97;;;2.80;99.90;;;;;;5055098;28;20477;-73
2020/12/12 10:20:25;;;;;;;48.23;21.83;;;2.90;99.90;;;;;;5055147;28;20203;-73
2020/12/12 10:22:52;;;;;;;49.13;22.30;;;2.90;99.90;;;;;;5054700;28;20181;-74
2020/12/12 10:25:18;;;;;;;48.77;23.77;;;3.00;99.90;;;;;;5055220;28;20490;-73
2020/12/12 10:27:44;;;;;;;48.77;21.80;;;2.90;99.90;;;;;;5055384;28;20744;-73
2020/12/12 10:30:12;;;;;;;48.80;21.77;;;2.90;99.90;;;;;;5054732;28;20409;-73
2020/12/12 10:32:39;;;;;;;45.73;21.03;;;2.80;99.90;;;;;;5054826;28;20557;-73
2020/12/12 10:35:06;;;;;;;51.37;23.03;;;2.90;99.90;;;;;;5054611;28;20901;-73
2020/12/12 10:37:32;;;;;;;46.90;23.20;;;3.00;99.90;;;;;;5054873;28;20471;-73
2020/12/12 10:42:29;;;;;;;47.30;21.20;;;3.00;99.90;;;;;;5055110;28;20453;-74
2020/12/12 10:44:55;;;;;;;48.90;21.10;;;3.10;99.90;;;;;;5053948;28;20416;-73
2020/12/12 10:47:21;;;;;;;43.63;23.87;;;3.10;99.90;;;;;;5054931;28;20181;-73
2020/12/12 10:49:47;;;;;;;42.63;21.60;;;3.10;99.90;;;;;;5054473;28;20611;-73
2020/12/12 10:52:12;;;;;;;46.40;21.40;;;3.10;99.90;;;;;;5054523;28;20192;-73
2020/12/12 10:54:39;;;;;;;46.97;21.50;;;3.10;99.90;;;;;;5054373;28;20195;-74
2020/12/12 10:57:05;;;;;;;41.60;21.40;;;3.10;99.90;;;;;;5053558;28;20615;-73
2020/12/12 10:59:30;;;;;;;49.60;21.40;;;3.10;99.90;;;;;;5054471;28;20415;-73
2020/12/12 11:01:56;;;;;;;45.97;20.93;;;3.10;99.90;;;;;;5054095;28;20217;-73
2020/12/12 11:04:23;;;;;;;38.77;20.10;;;3.10;99.90;;;;;;5054065;28;20178;-72
2020/12/12 11:06:49;;;;;;;48.93;22.27;;;3.10;99.90;;;;;;5053814;28;20539;-73
2020/12/12 11:09:16;;;;;;;45.93;22.47;;;3.10;99.90;;;;;;5054203;28;20913;-73
2020/12/12 11:11:42;;;;;;;49.27;21.93;;;3.20;99.90;;;;;;5052887;28;20426;-73
2020/12/12 11:14:08;;;;;;;45.23;23.93;;;3.10;99.90;;;;;;5053707;28;20772;-73
2020/12/12 11:16:35;;;;;;;48.17;21.77;;;3.10;99.90;;;;;;5053729;28;20417;-72
2020/12/12 11:19:01;;;;;;;46.47;22.70;;;3.10;99.90;;;;;;5053937;28;20430;-73
2020/12/12 11:21:27;;;;;;;45.60;21.90;;;3.20;99.90;;;;;;5054052;28;20455;-73
2020/12/12 11:23:53;;;;;;;38.30;20.50;;;3.20;99.90;;;;;;5053999;28;20718;-72
2020/12/12 11:26:19;;;;;;;46.73;21.27;;;3.20;99.90;;;;;;5053076;28;20421;-72
2020/12/12 11:28:46;;;;;;;44.30;20.87;;;3.30;99.90;;;;;;5054032;28;20483;-73
2020/12/12 11:31:15;;;;;;;48.83;22.70;;;3.30;99.90;;;;;;5053872;28;20529;-72
2020/12/12 11:33:41;;;;;;;40.33;19.50;;;3.30;99.90;;;;;;5053755;28;20439;-73
2020/12/12 11:38:56;;;;;;;36.37;18.13;;;3.30;99.90;;;;;;5053362;28;20441;-72
2020/12/12 11:46:38;;;;;;;46.23;19.27;;;3.30;99.90;;;;;;5053507;28;20432;-72
2020/12/12 11:49:09;;;;;;;41.17;19.33;;;3.40;99.90;;;;;;5053947;28;20556;-73
2020/12/12 11:51:36;;;;;;;44.33;19.73;;;3.30;99.90;;;;;;5053155;28;20170;-72
2020/12/12 11:54:02;;;;;;;41.53;20.37;;;3.40;99.90;;;;;;5053703;28;20425;-73
2020/12/12 11:56:28;;;;;;;51.20;19.43;;;3.40;99.90;;;;;;5053625;28;20416;-73
2020/12/12 11:58:54;;;;;;;46.63;20.33;;;3.50;99.90;;;;;;5053227;28;21143;-73
2020/12/12 12:01:22;;;;;;;46.07;20.60;;;3.50;99.90;;;;;;5053010;28;20208;-72
2020/12/12 12:03:48;;;;;;;44.57;19.43;;;3.40;99.90;;;;;;5052939;28;20416;-73
2020/12/12 12:06:14;;;;;;;41.43;19.93;;;3.40;99.90;;;;;;5053128;28;20413;-72
2020/12/12 12:11:34;;;;;;;40.13;20.30;;;3.60;99.90;;;;;;5053343;28;20637;-73
2020/12/12 12:14:05;;;;;;;37.50;20.43;;;3.50;99.90;;;;;;5052630;28;20436;-72
2020/12/12 12:16:41;;;;;;;38.57;20.63;;;3.50;99.90;;;;;;5052886;28;20416;-72
2020/12/12 12:19:09;;;;;;;40.70;20.20;;;3.50;99.90;;;;;;5052129;28;20405;-73
2020/12/12 12:21:35;;;;;;;48.43;22.40;;;3.50;99.90;;;;;;5052631;28;21007;-73
2020/12/12 12:24:06;;;;;;;57.27;23.00;;;3.50;99.90;;;;;;5052066;28;20407;-73
2020/12/12 12:26:36;;;;;;;47.90;21.30;;;3.50;99.90;;;;;;5052706;28;20484;-73
2020/12/12 12:29:06;;;;;;;47.57;21.13;;;3.50;99.90;;;;;;5052870;28;20740;-74
2020/12/12 12:31:33;;;;;;;48.60;22.27;;;3.50;99.90;;;;;;5052782;28;20408;-74
2020/12/12 12:33:59;;;;;;;46.27;22.17;;;3.40;99.90;;;;;;5052360;28;20414;-73
2020/12/12 12:36:27;;;;;;;46.60;23.17;;;3.40;99.90;;;;;;5053022;28;20636;-73
2020/12/12 12:38:54;;;;;;;41.50;21.80;;;3.40;99.90;;;;;;5051442;28;20805;-73
2020/12/12 12:41:20;;;;;;;50.30;22.67;;;3.50;99.90;;;;;;5052337;28;20542;-74
2020/12/12 12:43:46;;;;;;;48.33;22.20;;;3.50;99.90;;;;;;5052476;28;20497;-73
2020/12/12 12:46:12;;;;;;;49.83;22.97;;;3.50;99.90;;;;;;5052256;28;20413;-74
2020/12/12 12:48:39;;;;;;;42.03;20.97;;;3.50;99.90;;;;;;5052556;28;20539;-73
2020/12/12 12:51:07;;;;;;;41.97;22.17;;;3.50;99.90;;;;;;5052294;28;20418;-73
2020/12/12 12:53:33;;;;;;;47.90;23.17;;;3.50;99.90;;;;;;5052537;28;20421;-73
2020/12/12 12:56:00;;;;;;;52.23;22.37;;;3.50;99.90;;;;;;5051390;28;20409;-73